Time;durP1;ratioP1;P1;durP2;ratioP2;P2;SDS_P1;SDS_P2;PMS_P1;PMS_P2;Temp;Humidity;BMP_temperature;BMP_pressure;BME280_temperature;BME280_humidity;BME280_pressure;Samples;Min_cycle;Max_cycle;Signal;HPM_P1;HPM_P2
2022/03/29 00:02:10;;;;;;;116.95;54.58;;;3.90;99.90;;;;;;4971740;28;20478;-71
2022/03/29 00:04:37;;;;;;;122.68;57.22;;;3.80;99.90;;;;;;4974076;28;20082;-71
2022/03/29 00:07:04;;;;;;;114.57;54.28;;;3.70;99.90;;;;;;4971397;28;20136;-72
2022/03/29 00:09:30;;;;;;;115.45;53.40;;;3.60;99.90;;;;;;4991729;23;20450;-72
2022/03/29 00:11:57;;;;;;;103.78;48.03;;;3.70;99.90;;;;;;5021333;28;20137;-69
2022/03/29 00:14:24;;;;;;;99.07;48.58;;;3.70;99.90;;;;;;5020879;28;20045;-71
2022/03/29 00:16:52;;;;;;;106.10;51.47;;;3.70;99.90;;;;;;4994654;28;20543;-70
2022/03/29 00:19:19;;;;;;;87.20;47.83;;;3.60;99.90;;;;;;4980837;28;20556;-70
2022/03/29 00:21:46;;;;;;;99.03;49.47;;;3.50;99.90;;;;;;4996664;28;20054;-71
2022/03/29 00:24:13;;;;;;;108.00;53.53;;;3.50;99.90;;;;;;4968348;28;20675;-71
2022/03/29 00:26:41;;;;;;;108.95;54.35;;;3.50;99.90;;;;;;4978852;28;20038;-69
2022/03/29 00:29:08;;;;;;;109.18;53.38;;;3.60;99.90;;;;;;4993450;28;20103;-71
2022/03/29 00:31:35;;;;;;;102.45;51.60;;;3.60;99.90;;;;;;4994310;28;20053;-72
2022/03/29 00:34:02;;;;;;;118.80;54.63;;;3.50;99.90;;;;;;5010460;28;20073;-71
2022/03/29 00:36:29;;;;;;;114.00;59.47;;;3.50;99.90;;;;;;5009990;28;20104;-70
2022/03/29 00:38:56;;;;;;;102.20;50.72;;;3.40;99.90;;;;;;4977591;28;20058;-69
2022/03/29 00:41:23;;;;;;;104.00;53.10;;;3.40;99.90;;;;;;4993707;28;20498;-70
2022/03/29 00:43:49;;;;;;;103.43;52.38;;;3.50;99.90;;;;;;4992115;28;20041;-69
2022/03/29 00:46:16;;;;;;;104.40;51.00;;;3.50;99.90;;;;;;4976768;28;20502;-68
2022/03/29 00:48:43;;;;;;;103.07;51.60;;;3.60;99.90;;;;;;4994745;28;20171;-71
2022/03/29 00:51:10;;;;;;;117.57;55.13;;;3.60;99.90;;;;;;4993362;28;20049;-69
2022/03/29 00:53:38;;;;;;;101.57;49.80;;;3.60;99.90;;;;;;4977338;28;20216;-69
2022/03/29 00:56:04;;;;;;;94.50;49.03;;;3.50;99.90;;;;;;4978266;28;20046;-69
2022/03/29 00:58:34;;;;;;;102.15;47.75;;;3.50;99.90;;;;;;4994812;28;20132;-69
2022/03/29 01:01:02;;;;;;;100.45;48.05;;;3.50;99.90;;;;;;4975833;28;20042;-69
2022/03/29 01:03:32;;;;;;;99.68;49.72;;;3.40;99.90;;;;;;4975238;28;20052;-70
2022/03/29 01:05:59;;;;;;;100.55;50.90;;;3.40;99.90;;;;;;4994058;28;20204;-71
2022/03/29 01:08:27;;;;;;;108.50;54.80;;;3.40;99.90;;;;;;4977801;28;20049;-68
2022/03/29 01:10:54;;;;;;;109.38;52.20;;;3.40;99.90;;;;;;4991028;28;20042;-70
2022/03/29 01:13:21;;;;;;;115.93;55.65;;;3.40;99.90;;;;;;4976160;28;20054;-69
2022/03/29 01:15:50;;;;;;;113.00;52.35;;;3.40;99.90;;;;;;4976859;28;20052;-68
2022/03/29 01:18:18;;;;;;;121.25;55.63;;;3.40;99.90;;;;;;4994196;28;20081;-70
2022/03/29 01:20:49;;;;;;;113.50;50.55;;;3.40;99.90;;;;;;4993105;28;20093;-70
2022/03/29 01:23:17;;;;;;;117.22;50.17;;;3.30;99.90;;;;;;4973830;28;20046;-70
2022/03/29 01:25:45;;;;;;;117.70;52.78;;;3.20;99.90;;;;;;4994109;28;20048;-70
2022/03/29 01:28:15;;;;;;;116.40;51.83;;;3.10;99.90;;;;;;4976594;28;20058;-70
2022/03/29 01:30:42;;;;;;;112.82;50.42;;;3.30;99.90;;;;;;4968169;28;20450;-69
2022/03/29 01:33:10;;;;;;;109.38;50.80;;;3.20;99.90;;;;;;4989675;28;20569;-71
2022/03/29 01:35:37;;;;;;;114.47;53.03;;;3.20;99.90;;;;;;4994179;28;20077;-70
2022/03/29 01:38:04;;;;;;;106.93;49.38;;;3.20;99.90;;;;;;4975599;28;20756;-71
2022/03/29 01:40:30;;;;;;;125.25;52.88;;;3.20;99.90;;;;;;4991392;28;20120;-69
2022/03/29 01:43:00;;;;;;;111.35;51.83;;;3.40;99.90;;;;;;4993170;28;20049;-69
2022/03/29 01:45:31;;;;;;;114.97;51.45;;;3.30;99.90;;;;;;4957855;28;20049;-70
2022/03/29 01:47:59;;;;;;;110.90;53.17;;;3.40;99.90;;;;;;4977289;28;20061;-70
2022/03/29 01:50:26;;;;;;;112.53;53.03;;;3.40;99.90;;;;;;4994255;28;20513;-69
2022/03/29 01:52:53;;;;;;;117.30;53.92;;;3.40;99.90;;;;;;4995699;28;20112;-69
2022/03/29 01:55:21;;;;;;;102.78;49.30;;;3.40;99.90;;;;;;4993837;28;20422;-70
2022/03/29 01:57:49;;;;;;;100.03;48.95;;;3.30;99.90;;;;;;4974572;28;20040;-69
2022/03/29 02:00:34;;;;;;;119.78;54.83;;;3.30;99.90;;;;;;4990961;28;20065;-68
2022/03/29 02:03:05;;;;;;;105.65;50.92;;;3.50;99.90;;;;;;4974413;28;20049;-69
2022/03/29 02:05:32;;;;;;;99.63;48.80;;;3.40;99.90;;;;;;4992221;28;20052;-69
2022/03/29 02:08:00;;;;;;;93.65;48.63;;;3.40;99.90;;;;;;4973999;28;20057;-69
2022/03/29 02:10:27;;;;;;;100.68;49.25;;;3.50;99.90;;;;;;4991796;28;20505;-70
2022/03/29 02:12:54;;;;;;;105.38;49.83;;;3.40;99.90;;;;;;4974288;28;20138;-69
2022/03/29 02:15:21;;;;;;;96.20;50.33;;;3.40;99.90;;;;;;5001055;28;20266;-69
2022/03/29 02:17:48;;;;;;;96.60;48.72;;;3.70;99.90;;;;;;4985700;28;20053;-69
2022/03/29 02:20:16;;;;;;;99.78;51.72;;;3.60;99.90;;;;;;5005458;28;20054;-69
2022/03/29 02:22:43;;;;;;;102.25;50.33;;;3.70;99.90;;;;;;4980569;28;20351;-69
2022/03/29 02:25:10;;;;;;;102.68;49.63;;;3.80;99.90;;;;;;4974783;28;20049;-68
2022/03/29 02:27:42;;;;;;;102.50;50.67;;;3.80;99.90;;;;;;4993572;28;20049;-69
2022/03/29 02:30:11;;;;;;;97.40;51.38;;;3.80;99.90;;;;;;4992182;28;20049;-69
2022/03/29 02:32:39;;;;;;;100.95;50.95;;;3.60;99.90;;;;;;4993365;28;20245;-70
2022/03/29 02:35:07;;;;;;;95.55;48.42;;;3.70;99.90;;;;;;4976131;28;20810;-69
2022/03/29 02:37:34;;;;;;;92.82;46.60;;;3.70;99.90;;;;;;4993312;28;20081;-70
2022/03/29 02:40:01;;;;;;;97.97;48.13;;;3.70;99.90;;;;;;4976000;28;20115;-69
2022/03/29 02:42:27;;;;;;;89.03;47.38;;;3.60;99.90;;;;;;4994137;28;20529;-70
2022/03/29 02:44:54;;;;;;;109.07;50.25;;;3.60;99.90;;;;;;4993543;28;20869;-69
2022/03/29 02:47:21;;;;;;;102.88;50.92;;;3.60;99.90;;;;;;4975614;28;20204;-71
2022/03/29 02:49:48;;;;;;;110.53;52.15;;;3.50;99.90;;;;;;4991882;28;20472;-71
2022/03/29 02:52:15;;;;;;;110.72;50.35;;;3.60;99.90;;;;;;4973852;28;20046;-71
2022/03/29 02:54:42;;;;;;;122.75;56.38;;;3.50;99.90;;;;;;4972611;28;20378;-71
2022/03/29 02:57:10;;;;;;;132.40;57.35;;;3.50;99.90;;;;;;4977677;28;20474;-71
2022/03/29 02:59:37;;;;;;;130.25;57.35;;;3.60;99.90;;;;;;4973673;28;20701;-71
2022/03/29 03:02:04;;;;;;;127.43;56.90;;;3.60;99.90;;;;;;4972897;28;20145;-71
2022/03/29 03:04:32;;;;;;;129.48;56.90;;;3.80;99.90;;;;;;4957044;28;20057;-71
2022/03/29 03:06:59;;;;;;;128.40;55.78;;;3.80;99.90;;;;;;4974653;28;20048;-71
2022/03/29 03:09:26;;;;;;;119.75;52.10;;;3.80;99.90;;;;;;4991627;28;20058;-71
2022/03/29 03:11:53;;;;;;;111.55;52.83;;;3.70;99.90;;;;;;5004320;28;20684;-71
2022/03/29 03:14:20;;;;;;;108.75;50.50;;;3.80;99.90;;;;;;5009063;28;20195;-71
2022/03/29 03:16:46;;;;;;;104.93;48.53;;;3.90;99.90;;;;;;4993637;28;20050;-71
2022/03/29 03:19:33;;;;;;;99.97;47.72;;;3.80;99.90;;;;;;4992280;28;20037;-71
2022/03/29 03:22:00;;;;;;;97.32;46.78;;;3.80;99.90;;;;;;4990217;28;20398;-71
2022/03/29 03:24:27;;;;;;;104.72;47.67;;;3.80;99.90;;;;;;5003864;28;20129;-71
2022/03/29 03:26:54;;;;;;;99.47;49.15;;;3.90;99.90;;;;;;4960209;28;20042;-71
2022/03/29 03:29:21;;;;;;;97.05;47.78;;;3.90;99.90;;;;;;4990308;28;20050;-71
2022/03/29 03:31:47;;;;;;;102.80;48.80;;;4.10;99.90;;;;;;4956965;28;20069;-71
2022/03/29 03:34:15;;;;;;;98.15;48.72;;;4.30;99.90;;;;;;4974277;28;20108;-71
2022/03/29 03:36:41;;;;;;;88.35;45.53;;;4.30;99.90;;;;;;4991137;28;20050;-71
2022/03/29 03:39:08;;;;;;;100.93;50.65;;;4.30;99.90;;;;;;4957214;28;20042;-71
2022/03/29 03:41:37;;;;;;;97.38;48.97;;;4.30;99.90;;;;;;4988419;28;20054;-71
2022/03/29 03:44:04;;;;;;;98.07;48.75;;;4.40;99.90;;;;;;4974419;28;20049;-71
2022/03/29 03:46:31;;;;;;;100.20;48.97;;;4.40;99.90;;;;;;4977077;28;20061;-71
2022/03/29 03:48:58;;;;;;;95.85;49.50;;;4.50;99.90;;;;;;5004495;28;20045;-71
2022/03/29 03:51:25;;;;;;;107.30;51.60;;;4.60;99.90;;;;;;4996236;28;20053;-71
2022/03/29 03:53:52;;;;;;;96.88;49.20;;;4.70;99.90;;;;;;5005486;28;20576;-70
2022/03/29 03:56:18;;;;;;;93.13;49.35;;;4.70;99.90;;;;;;4978985;28;20247;-71
2022/03/29 03:58:45;;;;;;;101.00;51.10;;;4.70;99.90;;;;;;4987589;28;20057;-70
2022/03/29 04:01:12;;;;;;;116.40;56.08;;;4.70;99.90;;;;;;4993270;28;20852;-70
2022/03/29 04:03:39;;;;;;;106.13;53.58;;;4.80;99.90;;;;;;4994531;28;20099;-71
2022/03/29 04:06:06;;;;;;;125.03;59.67;;;4.80;99.90;;;;;;4977086;28;20050;-71
2022/03/29 04:08:33;;;;;;;129.23;58.50;;;4.80;99.90;;;;;;4995932;28;20050;-70
2022/03/29 04:11:00;;;;;;;133.48;60.50;;;4.90;99.90;;;;;;4990972;28;20060;-71
2022/03/29 04:13:26;;;;;;;127.03;59.88;;;4.80;99.90;;;;;;5011618;28;20053;-71
2022/03/29 04:15:53;;;;;;;124.95;57.58;;;5.00;99.90;;;;;;4998018;28;20072;-70
2022/03/29 04:18:20;;;;;;;130.25;56.95;;;5.20;99.90;;;;;;4984999;28;20058;-71
2022/03/29 04:20:47;;;;;;;129.15;58.60;;;5.20;99.90;;;;;;4992445;28;20053;-72
2022/03/29 04:23:14;;;;;;;107.18;52.10;;;5.10;99.90;;;;;;4991149;28;20077;-71
2022/03/29 04:25:41;;;;;;;95.03;49.97;;;5.10;99.90;;;;;;4978190;28;20379;-71
2022/03/29 04:28:07;;;;;;;99.05;52.95;;;5.10;99.90;;;;;;4978370;28;20277;-71
2022/03/29 04:30:34;;;;;;;99.68;49.88;;;5.10;99.90;;;;;;4993956;28;20050;-69
2022/03/29 04:33:02;;;;;;;103.05;52.42;;;5.10;99.90;;;;;;4983104;28;20333;-68
2022/03/29 04:35:28;;;;;;;94.32;51.42;;;5.10;99.90;;;;;;4977459;28;21141;-69
2022/03/29 04:37:55;;;;;;;96.68;50.40;;;5.00;99.90;;;;;;4995593;28;20663;-70
2022/03/29 04:40:22;;;;;;;97.53;51.28;;;5.00;99.90;;;;;;4991077;28;20108;-69
2022/03/29 04:42:51;;;;;;;106.28;51.08;;;5.00;99.90;;;;;;4988934;28;20046;-69
2022/03/29 04:45:19;;;;;;;98.07;50.30;;;5.00;99.90;;;;;;4995842;28;20052;-69
2022/03/29 04:47:47;;;;;;;106.10;51.33;;;5.00;99.90;;;;;;5013380;28;20045;-68
2022/03/29 04:50:15;;;;;;;101.35;49.90;;;5.00;99.90;;;;;;5002395;28;20041;-68
2022/03/29 04:52:46;;;;;;;105.93;53.53;;;5.00;99.90;;;;;;4995381;28;20399;-70
2022/03/29 04:55:15;;;;;;;109.50;55.53;;;5.00;99.90;;;;;;4978626;28;20085;-68
2022/03/29 04:57:43;;;;;;;114.28;54.85;;;5.20;99.90;;;;;;4994040;28;20164;-69
2022/03/29 05:00:12;;;;;;;104.78;55.70;;;5.30;99.90;;;;;;4991570;28;20329;-70
2022/03/29 05:02:41;;;;;;;110.32;54.58;;;5.30;99.90;;;;;;4975947;28;20148;-71
2022/03/29 05:05:09;;;;;;;109.88;56.10;;;5.30;99.90;;;;;;4993053;28;20049;-70
2022/03/29 05:07:37;;;;;;;114.28;52.97;;;5.30;99.90;;;;;;4991676;28;20346;-68
2022/03/29 05:10:04;;;;;;;110.90;57.28;;;5.40;99.90;;;;;;4989906;28;20038;-69
2022/03/29 05:12:46;;;;;;;136.40;59.42;;;5.50;99.90;;;;;;4991896;28;20402;-69
2022/03/29 05:15:15;;;;;;;121.60;55.47;;;5.50;99.90;;;;;;4993984;28;20426;-68
2022/03/29 05:17:42;;;;;;;122.82;57.20;;;5.60;99.90;;;;;;4993123;28;20627;-70
2022/03/29 05:20:11;;;;;;;119.03;58.05;;;5.50;99.90;;;;;;4989619;28;20585;-69
2022/03/29 05:22:56;;;;;;;121.43;56.95;;;5.50;99.90;;;;;;4991548;28;20434;-69
2022/03/29 05:25:25;;;;;;;123.45;59.40;;;5.50;99.90;;;;;;4990681;28;20430;-70
2022/03/29 05:27:53;;;;;;;134.10;59.97;;;5.50;99.90;;;;;;4984777;28;20548;-68
2022/03/29 05:30:21;;;;;;;128.35;59.90;;;5.50;99.90;;;;;;4980959;28;20054;-69
2022/03/29 05:32:51;;;;;;;142.57;61.15;;;5.50;99.90;;;;;;4992990;28;20042;-68
2022/03/29 05:35:18;;;;;;;134.45;60.60;;;5.50;99.90;;;;;;4992450;28;20525;-68
2022/03/29 05:37:45;;;;;;;142.68;64.72;;;5.50;99.90;;;;;;4992197;28;20060;-69
2022/03/29 05:40:12;;;;;;;136.82;60.75;;;5.50;99.90;;;;;;4990172;28;20283;-68
2022/03/29 05:42:41;;;;;;;139.68;63.40;;;5.40;99.90;;;;;;4991971;28;20042;-70
2022/03/29 05:45:09;;;;;;;142.80;62.90;;;5.30;99.90;;;;;;4992664;28;20049;-72
2022/03/29 05:50:23;;;;;;;149.90;63.47;;;5.10;99.90;;;;;;4980021;28;20049;-72
2022/03/29 05:52:50;;;;;;;144.98;62.78;;;5.10;99.90;;;;;;4975603;28;20805;-70
2022/03/29 05:55:17;;;;;;;151.60;64.25;;;5.20;99.90;;;;;;4992333;28;20108;-69
2022/03/29 05:57:44;;;;;;;142.98;63.17;;;5.20;99.90;;;;;;4992777;28;20057;-69
2022/03/29 06:00:12;;;;;;;147.05;61.03;;;5.30;99.90;;;;;;4973834;28;20056;-70
2022/03/29 06:02:47;;;;;;;150.48;62.58;;;5.20;99.90;;;;;;4992854;28;20218;-70
2022/03/29 06:05:14;;;;;;;141.38;63.60;;;5.20;99.90;;;;;;4993550;28;20038;-70
2022/03/29 06:07:41;;;;;;;149.00;63.78;;;5.30;99.90;;;;;;4991855;28;20045;-70
2022/03/29 06:10:08;;;;;;;148.82;60.53;;;5.30;99.90;;;;;;5049034;23;20729;-74
2022/03/29 06:12:38;;;;;;;146.82;62.33;;;5.10;99.90;;;;;;5018212;28;20072;-74
2022/03/29 06:15:06;;;;;;;151.90;62.95;;;5.00;99.90;;;;;;5003404;28;20287;-75
2022/03/29 06:17:35;;;;;;;136.70;61.70;;;4.90;99.90;;;;;;5020303;28;20160;-74
2022/03/29 06:20:07;;;;;;;149.70;62.03;;;4.90;99.90;;;;;;5000049;28;20107;-74
2022/03/29 06:22:41;;;;;;;477.85;199.75;;;4.80;99.90;;;;;;5001135;28;20058;-76
2022/03/29 06:25:08;;;;;;;146.13;62.63;;;4.90;99.90;;;;;;4985143;28;20060;-75
2022/03/29 06:27:35;;;;;;;146.95;60.47;;;4.90;99.90;;;;;;5001201;28;20609;-75
2022/03/29 06:30:06;;;;;;;140.60;61.55;;;4.90;99.90;;;;;;4997627;28;20101;-74
2022/03/29 06:32:34;;;;;;;143.25;60.88;;;4.80;99.90;;;;;;5001768;28;20318;-75
2022/03/29 06:35:00;;;;;;;136.27;57.85;;;4.80;99.90;;;;;;5002642;28;20136;-75
2022/03/29 06:37:27;;;;;;;127.45;57.00;;;4.80;99.90;;;;;;4983300;28;20127;-75
2022/03/29 06:39:54;;;;;;;129.30;53.78;;;5.00;99.90;;;;;;4983357;28;20115;-75
2022/03/29 06:42:20;;;;;;;124.30;58.10;;;5.10;99.90;;;;;;4982369;28;20549;-75
2022/03/29 06:44:47;;;;;;;122.82;54.92;;;5.10;99.90;;;;;;4982114;28;20080;-75
2022/03/29 06:47:16;;;;;;;119.28;54.47;;;5.10;99.90;;;;;;5004706;28;20115;-75
2022/03/29 06:49:43;;;;;;;132.32;57.35;;;5.10;99.90;;;;;;5001782;28;20694;-75
2022/03/29 06:52:10;;;;;;;125.25;55.45;;;4.90;99.90;;;;;;4999661;28;20126;-75
2022/03/29 06:54:37;;;;;;;124.93;54.30;;;4.90;99.90;;;;;;4983135;28;20137;-75
2022/03/29 06:57:05;;;;;;;116.50;53.10;;;4.90;99.90;;;;;;4984010;28;20057;-76
2022/03/29 06:59:32;;;;;;;117.82;53.42;;;5.00;99.90;;;;;;4997006;28;20607;-75
2022/03/29 07:02:13;;;;;;;109.65;48.65;;;5.10;99.90;;;;;;4987908;28;20049;-75
2022/03/29 07:04:41;;;;;;;121.22;52.58;;;5.10;99.90;;;;;;4982560;28;20057;-74
2022/03/29 07:07:07;;;;;;;108.20;48.58;;;4.90;99.90;;;;;;4999255;28;20128;-75
2022/03/29 07:12:20;;;;;;;108.85;49.97;;;4.90;99.90;;;;;;4978906;28;20049;-75
2022/03/29 07:14:47;;;;;;;121.97;57.78;;;5.00;99.90;;;;;;4982024;28;20148;-76
2022/03/29 07:17:16;;;;;;;125.35;60.03;;;5.20;99.90;;;;;;5011076;28;20041;-74
2022/03/29 07:19:43;;;;;;;127.35;63.45;;;5.30;99.90;;;;;;4998382;28;20722;-75
2022/03/29 07:22:10;;;;;;;129.52;59.45;;;5.20;99.90;;;;;;4993248;28;20046;-75
2022/03/29 07:24:38;;;;;;;123.38;61.22;;;5.20;99.90;;;;;;4998204;28;20116;-75
2022/03/29 07:27:05;;;;;;;113.43;55.67;;;5.30;99.90;;;;;;4988096;28;20053;-75
2022/03/29 07:29:33;;;;;;;108.68;54.33;;;5.40;99.90;;;;;;4978763;28;20053;-75
2022/03/29 07:31:59;;;;;;;93.78;47.67;;;5.50;99.90;;;;;;4980482;28;20059;-75
2022/03/29 07:34:26;;;;;;;91.47;47.28;;;5.70;99.90;;;;;;4999264;28;20530;-75
2022/03/29 07:36:56;;;;;;;97.90;51.90;;;5.70;99.90;;;;;;4981652;28;20088;-75
2022/03/29 07:39:23;;;;;;;94.25;49.55;;;5.60;99.90;;;;;;4981299;28;20050;-75
2022/03/29 07:41:49;;;;;;;105.43;50.38;;;5.70;99.90;;;;;;5000222;28;20053;-75
2022/03/29 07:44:17;;;;;;;91.45;47.70;;;5.90;99.90;;;;;;4997705;28;20057;-74
2022/03/29 07:46:44;;;;;;;90.95;46.72;;;5.90;99.90;;;;;;4980636;28;20053;-75
2022/03/29 07:49:11;;;;;;;91.88;46.28;;;6.00;99.90;;;;;;5009563;28;20057;-75
2022/03/29 07:51:58;;;;;;;99.90;55.97;;;6.00;99.90;;;;;;4965009;28;20061;-75
2022/03/29 07:54:25;;;;;;;90.43;49.40;;;6.00;99.90;;;;;;4978354;28;20064;-74
2022/03/29 07:56:52;;;;;;;88.03;44.78;;;5.80;99.90;;;;;;4981103;28;20057;-73
2022/03/29 07:59:18;;;;;;;82.07;43.88;;;5.40;99.90;;;;;;4984868;28;20137;-75
2022/03/29 08:01:45;;;;;;;80.85;43.40;;;5.50;99.90;;;;;;4982661;28;20061;-74
2022/03/29 08:04:12;;;;;;;79.55;45.40;;;5.40;99.90;;;;;;4981581;28;20116;-76
2022/03/29 08:06:38;;;;;;;81.90;43.38;;;5.50;99.90;;;;;;4980980;28;20756;-72
2022/03/29 08:09:06;;;;;;;77.35;43.88;;;5.60;99.90;;;;;;4999094;28;20104;-74
2022/03/29 08:11:36;;;;;;;77.75;45.08;;;5.70;99.90;;;;;;4930245;28;1082304;-76
2022/03/29 08:14:03;;;;;;;76.78;45.97;;;5.90;99.90;;;;;;5001060;28;20740;-77
2022/03/29 08:16:30;;;;;;;86.43;47.72;;;6.20;99.90;;;;;;4984561;28;20076;-78
2022/03/29 08:18:57;;;;;;;76.28;45.83;;;6.40;99.90;;;;;;4985191;28;20046;-76
2022/03/29 08:24:09;;;;;;;76.72;46.88;;;6.80;99.90;;;;;;4986483;28;20045;-77
2022/03/29 08:26:36;;;;;;;78.38;47.85;;;7.00;99.90;;;;;;4982627;28;20747;-75
2022/03/29 08:29:03;;;;;;;77.60;46.80;;;7.10;99.90;;;;;;4983750;28;20755;-77
2022/03/29 08:31:30;;;;;;;79.70;48.78;;;7.40;99.90;;;;;;4985474;28;20050;-77
2022/03/29 08:33:57;;;;;;;74.97;48.33;;;7.40;99.90;;;;;;4998931;28;20131;-77
2022/03/29 08:36:23;;;;;;;76.07;48.78;;;7.50;99.90;;;;;;4984861;28;20495;-79
2022/03/29 08:38:50;;;;;;;69.95;48.50;;;7.70;99.90;;;;;;5002682;28;20084;-77
2022/03/29 08:41:18;;;;;;;74.43;47.30;;;7.80;99.90;;;;;;4989722;28;20046;-77
2022/03/29 08:43:45;;;;;;;70.00;48.15;;;8.10;99.90;;;;;;5006466;28;20307;-78
2022/03/29 08:46:12;;;;;;;76.97;50.30;;;8.50;99.90;;;;;;4988842;28;20042;-78
2022/03/29 08:48:42;;;;;;;69.13;46.97;;;8.50;99.90;;;;;;4989383;28;20041;-78
2022/03/29 08:51:10;;;;;;;65.80;48.45;;;8.00;99.90;;;;;;4989599;28;20046;-77
2022/03/29 08:54:01;;;;;;;73.03;49.83;;;7.90;99.90;;;;;;4991021;28;20048;-78
2022/03/29 08:56:28;;;;;;;72.95;49.17;;;8.10;99.90;;;;;;4992176;28;20484;-78
2022/03/29 08:58:56;;;;;;;72.80;50.20;;;8.20;99.90;;;;;;4993902;28;20111;-77
2022/03/29 09:01:23;;;;;;;63.55;48.72;;;8.40;99.90;;;;;;5001347;28;20253;-77
2022/03/29 09:04:08;;;;;;;64.38;48.78;;;8.50;99.90;;;;;;5014266;28;20042;-77
2022/03/29 09:06:58;;;;;;;63.10;46.17;;;9.00;99.90;;;;;;5019417;28;20045;-77
2022/03/29 09:09:29;;;;;;;61.05;43.85;;;9.30;99.90;;;;;;4989994;28;20049;-76
2022/03/29 09:12:00;;;;;;;57.80;45.22;;;9.50;99.90;;;;;;5003354;28;20038;-76
2022/03/29 09:14:29;;;;;;;59.17;44.28;;;9.50;99.90;;;;;;4987605;28;20128;-76
2022/03/29 09:16:58;;;;;;;62.00;45.40;;;9.50;99.90;;;;;;4986744;28;20054;-76
2022/03/29 09:19:25;;;;;;;58.55;44.72;;;9.00;99.90;;;;;;4983760;28;20050;-74
2022/03/29 09:21:54;;;;;;;58.75;43.13;;;8.50;99.90;;;;;;4982402;28;20034;-77
2022/03/29 09:24:21;;;;;;;63.45;43.00;;;9.00;99.90;;;;;;4981968;28;20432;-77
2022/03/29 09:26:54;;;;;;;55.50;43.92;;;9.30;99.90;;;;;;5001340;28;20050;-76
2022/03/29 09:29:23;;;;;;;55.15;43.40;;;9.60;99.90;;;;;;4978370;28;20050;-77
2022/03/29 09:32:03;;;;;;;54.53;43.97;;;9.70;99.90;;;;;;4974811;28;20037;-75
2022/03/29 09:34:31;;;;;;;54.70;43.88;;;9.50;99.90;;;;;;4995909;28;20050;-77
2022/03/29 09:36:59;;;;;;;56.35;43.25;;;9.50;99.90;;;;;;4985784;28;20117;-78
2022/03/29 09:39:29;;;;;;;57.03;45.35;;;9.90;99.90;;;;;;4977161;28;20061;-77
2022/03/29 09:41:58;;;;;;;53.05;44.45;;;9.80;99.90;;;;;;4983718;28;20050;-77
2022/03/29 09:44:40;;;;;;;56.75;46.92;;;10.00;99.90;;;;;;4971003;28;20112;-75
2022/03/29 09:47:08;;;;;;;54.00;43.70;;;9.90;99.90;;;;;;4985315;28;20038;-76
2022/03/29 09:49:54;;;;;;;51.58;44.25;;;9.30;99.90;;;;;;4986299;28;20046;-77
2022/03/29 09:52:29;;;;;;;54.47;43.38;;;8.80;99.90;;;;;;4985559;28;20121;-76
2022/03/29 09:55:04;;;;;;;;;;;9.10;99.90;;;;;;4969390;28;20050;-77
2022/03/29 09:57:36;;;;;;;51.90;46.22;;;9.70;99.90;;;;;;4997657;28;19933;-76
2022/03/29 10:00:07;;;;;;;53.05;44.75;;;10.20;99.90;;;;;;4985604;28;20054;-77
2022/03/29 10:02:41;;;;;;;51.50;46.03;;;10.60;99.90;;;;;;5004294;28;20697;-76
2022/03/29 10:05:11;;;;;;;50.53;44.97;;;11.00;99.90;;;;;;4984711;28;20050;-77
2022/03/29 10:07:43;;;;;;;51.42;45.38;;;11.30;99.90;;;;;;4982506;28;20111;-77
2022/03/29 10:10:12;;;;;;;51.97;45.13;;;11.40;99.90;;;;;;4983532;28;20111;-78
2022/03/29 10:12:39;;;;;;;53.53;46.28;;;11.50;99.90;;;;;;5002357;28;20103;-76
2022/03/29 10:15:26;;;;;;;54.30;45.58;;;11.70;99.90;;;;;;4987739;28;20050;-77
2022/03/29 10:17:55;;;;;;;52.92;44.80;;;11.90;99.90;;;;;;4986818;28;20050;-76
2022/03/29 10:20:23;;;;;;;52.47;45.83;;;11.30;99.90;;;;;;4983752;28;20439;-76
2022/03/29 10:22:50;;;;;;;53.05;45.65;;;11.40;99.90;;;;;;5002725;28;20060;-77
2022/03/29 10:25:17;;;;;;;59.28;47.90;;;11.10;99.90;;;;;;4984839;28;20107;-76
2022/03/29 10:27:44;;;;;;;66.72;47.13;;;10.50;99.90;;;;;;4993679;28;20056;-77
2022/03/29 10:30:29;;;;;;;54.47;46.80;;;10.70;99.90;;;;;;4994377;28;20514;-76
2022/03/29 10:33:15;;;;;;;54.85;47.45;;;11.10;99.90;;;;;;5002614;28;20543;-78
2022/03/29 10:36:09;;;;;;;52.85;45.85;;;11.50;99.90;;;;;;4985144;28;20057;-77
2022/03/29 10:38:49;;;;;;;49.13;43.47;;;11.10;99.90;;;;;;4976301;28;20045;-76
2022/03/29 10:41:28;;;;;;;51.17;45.60;;;11.60;99.90;;;;;;4983375;28;20060;-77
2022/03/29 10:44:04;;;;;;;53.85;46.55;;;11.80;99.90;;;;;;4984546;28;20045;-77
2022/03/29 10:46:43;;;;;;;55.80;48.42;;;12.00;99.90;;;;;;4983308;28;20050;-77
2022/03/29 10:49:22;;;;;;;54.05;45.88;;;12.30;99.90;;;;;;4994368;28;20434;-76
2022/03/29 10:52:04;;;;;;;52.00;46.03;;;12.30;99.90;;;;;;4998357;28;20479;-77
2022/03/29 10:54:37;;;;;;;53.05;47.38;;;12.60;99.90;;;;;;4983535;28;20061;-77
2022/03/29 10:57:09;;;;;;;53.83;45.47;;;12.60;99.90;;;;;;4986433;28;20547;-76
2022/03/29 10:59:37;;;;;;;50.67;45.17;;;12.70;99.90;;;;;;4992082;28;20092;-77
2022/03/29 11:02:11;;;;;;;53.63;47.75;;;12.80;99.90;;;;;;4983886;28;20555;-76
2022/03/29 11:05:00;;;;;;;53.03;46.00;;;13.00;99.90;;;;;;4968123;28;20099;-76
2022/03/29 11:07:27;;;;;;;51.28;45.83;;;13.10;99.90;;;;;;4982087;28;20908;-75
2022/03/29 11:10:19;;;;;;;49.58;44.33;;;13.10;99.90;;;;;;4982628;28;20535;-76
2022/03/29 11:12:52;;;;;;;49.15;43.90;;;13.20;99.90;;;;;;4982577;28;20046;-76
2022/03/29 11:15:25;;;;;;;48.53;42.38;;;13.30;99.90;;;;;;4999568;28;20112;-76
2022/03/29 11:17:56;;;;;;;48.22;42.90;;;13.10;99.90;;;;;;4982852;28;20463;-76
2022/03/29 11:20:32;;;;;;;49.05;43.90;;;12.90;99.90;;;;;;4998361;28;20056;-77
2022/03/29 11:23:04;;;;;;;51.60;45.97;;;13.10;99.90;;;;;;4984514;28;20441;-78
2022/03/29 11:25:45;;;;;;;51.45;46.03;;;13.20;99.90;;;;;;4985884;28;20391;-78
2022/03/29 11:28:14;;;;;;;49.15;44.03;;;13.20;99.90;;;;;;5006367;28;20082;-79
2022/03/29 11:30:41;;;;;;;47.13;42.30;;;13.30;99.90;;;;;;4973800;28;20050;-76
2022/03/29 11:33:09;;;;;;;50.42;45.13;;;13.50;99.90;;;;;;5001485;28;20030;-75
2022/03/29 11:35:38;;;;;;;47.72;41.90;;;13.40;99.90;;;;;;5001013;28;20049;-77
2022/03/29 11:38:13;;;;;;;51.38;44.17;;;13.10;99.90;;;;;;4984676;28;20076;-76
2022/03/29 11:40:41;;;;;;;49.15;43.78;;;13.40;99.90;;;;;;4984413;28;20104;-76
2022/03/29 11:43:15;;;;;;;48.25;43.03;;;13.50;99.90;;;;;;5002294;28;20073;-77
2022/03/29 11:45:46;;;;;;;47.65;42.85;;;13.20;99.90;;;;;;4994356;28;20038;-77
2022/03/29 11:48:17;;;;;;;51.92;43.47;;;13.00;99.90;;;;;;4967844;28;20046;-77
2022/03/29 11:50:52;;;;;;;48.88;43.65;;;12.50;99.90;;;;;;5001642;28;20431;-78
2022/03/29 11:53:35;;;;;;;48.58;43.67;;;12.50;99.90;;;;;;5001598;28;20198;-77
2022/03/29 11:56:04;;;;;;;51.28;45.85;;;12.90;99.90;;;;;;4998383;28;20702;-77
2022/03/29 11:58:39;;;;;;;45.72;40.92;;;13.10;99.90;;;;;;5009064;28;20483;-75
2022/03/29 12:01:13;;;;;;;;;;;13.40;99.90;;;;;;4988551;28;20100;-77
2022/03/29 12:03:46;;;;;;;48.13;43.10;;;12.50;99.90;;;;;;4983898;28;20365;-77
2022/03/29 12:06:15;;;;;;;45.92;40.95;;;12.80;99.90;;;;;;5004631;28;20078;-77
2022/03/29 12:08:47;;;;;;;50.38;43.42;;;12.90;99.90;;;;;;4967233;28;21181;-75
2022/03/29 12:11:20;;;;;;;49.33;44.10;;;13.20;99.90;;;;;;5026537;23;20406;-78
2022/03/29 12:13:48;;;;;;;46.03;41.25;;;13.50;99.90;;;;;;5020451;28;20056;-78
2022/03/29 12:16:22;;;;;;;49.83;43.03;;;13.50;99.90;;;;;;5019271;28;20045;-77
2022/03/29 12:18:50;;;;;;;45.17;40.33;;;13.70;99.90;;;;;;5023426;28;20053;-78
2022/03/29 12:21:19;;;;;;;45.65;40.55;;;13.80;99.90;;;;;;5004128;28;20482;-77
2022/03/29 12:23:59;;;;;;;47.40;42.63;;;14.00;99.90;;;;;;5022051;28;20143;-77
2022/03/29 12:26:28;;;;;;;47.08;42.10;;;13.90;99.90;;;;;;5003976;28;20045;-77
2022/03/29 12:28:55;;;;;;;43.92;39.10;;;14.00;99.90;;;;;;5022565;28;20134;-77
2022/03/29 12:31:24;;;;;;;45.47;40.33;;;14.00;99.90;;;;;;5004469;28;20069;-76
2022/03/29 12:33:52;;;;;;;44.22;39.63;;;14.20;99.90;;;;;;5020909;28;20038;-76
2022/03/29 12:36:19;;;;;;;45.70;39.63;;;14.10;99.90;;;;;;5004480;28;20113;-79
2022/03/29 12:38:58;;;;;;;46.17;41.15;;;14.00;99.90;;;;;;5016467;28;20068;-78
2022/03/29 12:41:38;;;;;;;49.55;41.75;;;13.70;99.90;;;;;;5022975;28;20318;-78
2022/03/29 12:44:08;;;;;;;45.03;39.90;;;13.50;99.90;;;;;;5018650;28;20133;-78
2022/03/29 12:46:37;;;;;;;45.47;40.88;;;13.50;99.90;;;;;;5021822;28;20060;-77
2022/03/29 12:49:04;;;;;;;43.20;38.38;;;13.50;99.90;;;;;;5014151;28;20041;-78
2022/03/29 12:51:34;;;;;;;52.58;40.95;;;13.70;99.90;;;;;;5026177;28;20072;-77